sensor_id;sensor_type;location;lat;lon;timestamp;pressure;altitude;pressure_sealevel;temperature;humidity
81181;BME280;70650;51.408;7.132;2023-08-07T00:02:01;100047.03;;;12.20;94.14
81181;BME280;70650;51.408;7.132;2023-08-07T00:04:26;100034.91;;;12.16;93.43
81181;BME280;70650;51.408;7.132;2023-08-07T00:06:52;100042.56;;;12.20;94.12
81181;BME280;70650;51.408;7.132;2023-08-07T00:09:17;100029.38;;;12.19;93.89
81181;BME280;70650;51.408;7.132;2023-08-07T00:11:42;100027.69;;;12.18;93.93
81181;BME280;70650;51.408;7.132;2023-08-07T00:14:08;100031.13;;;12.20;93.79
81181;BME280;70650;51.408;7.132;2023-08-07T00:16:33;100032.81;;;12.21;93.96
81181;BME280;70650;51.408;7.132;2023-08-07T00:18:58;100036.41;;;12.20;93.79
81181;BME280;70650;51.408;7.132;2023-08-07T00:21:24;100023.34;;;12.17;93.93
81181;BME280;70650;51.408;7.132;2023-08-07T00:23:49;100049.03;;;12.29;93.70
81181;BME280;70650;51.408;7.132;2023-08-07T00:26:15;100037.47;;;12.30;93.71
81181;BME280;70650;51.408;7.132;2023-08-07T00:28:41;100047.25;;;12.30;93.80
81181;BME280;70650;51.408;7.132;2023-08-07T00:31:06;100043.00;;;12.27;94.07
81181;BME280;70650;51.408;7.132;2023-08-07T00:33:32;100043.63;;;12.31;93.99
81181;BME280;70650;51.408;7.132;2023-08-07T00:35:57;100043.84;;;12.28;93.74
81181;BME280;70650;51.408;7.132;2023-08-07T00:38:22;100042.72;;;12.32;93.44
81181;BME280;70650;51.408;7.132;2023-08-07T00:40:48;100047.91;;;12.33;93.47
81181;BME280;70650;51.408;7.132;2023-08-07T00:43:13;100047.91;;;12.33;93.57
81181;BME280;70650;51.408;7.132;2023-08-07T00:45:43;100068.69;;;12.39;93.79
81181;BME280;70650;51.408;7.132;2023-08-07T00:48:09;100060.41;;;12.31;92.94
81181;BME280;70650;51.408;7.132;2023-08-07T00:50:36;100065.78;;;12.30;93.29
81181;BME280;70650;51.408;7.132;2023-08-07T00:53:01;100068.38;;;12.31;92.89
81181;BME280;70650;51.408;7.132;2023-08-07T00:55:27;100067.81;;;12.26;93.23
81181;BME280;70650;51.408;7.132;2023-08-07T00:57:53;100071.94;;;12.30;93.38
81181;BME280;70650;51.408;7.132;2023-08-07T01:00:18;100070.25;;;12.29;93.78
81181;BME280;70650;51.408;7.132;2023-08-07T01:02:45;100065.91;;;12.28;93.58
81181;BME280;70650;51.408;7.132;2023-08-07T01:05:12;100068.25;;;12.33;93.22
81181;BME280;70650;51.408;7.132;2023-08-07T01:07:37;100080.97;;;12.28;93.35
81181;BME280;70650;51.408;7.132;2023-08-07T01:10:05;100071.50;;;12.24;93.82
81181;BME280;70650;51.408;7.132;2023-08-07T01:12:36;100068.28;;;12.18;93.31
81181;BME280;70650;51.408;7.132;2023-08-07T01:15:30;100104.09;;;12.26;93.36
81181;BME280;70650;51.408;7.132;2023-08-07T01:17:55;100086.00;;;12.18;93.31
81181;BME280;70650;51.408;7.132;2023-08-07T01:20:21;100076.56;;;12.14;93.85
81181;BME280;70650;51.408;7.132;2023-08-07T01:22:46;100067.75;;;12.13;93.83
81181;BME280;70650;51.408;7.132;2023-08-07T01:25:11;100081.56;;;12.18;94.21
81181;BME280;70650;51.408;7.132;2023-08-07T01:27:57;100072.75;;;12.18;93.53
81181;BME280;70650;51.408;7.132;2023-08-07T01:30:38;100080.16;;;12.13;93.74
81181;BME280;70650;51.408;7.132;2023-08-07T01:35:38;100069.00;;;12.08;93.87
81181;BME280;70650;51.408;7.132;2023-08-07T01:38:06;100089.81;;;12.14;93.89
81181;BME280;70650;51.408;7.132;2023-08-07T01:40:32;100085.78;;;12.08;93.89
81181;BME280;70650;51.408;7.132;2023-08-07T01:42:58;100084.88;;;12.08;94.07
81181;BME280;70650;51.408;7.132;2023-08-07T01:45:24;100075.91;;;12.10;93.96
81181;BME280;70650;51.408;7.132;2023-08-07T01:47:50;100094.34;;;12.12;93.88
81181;BME280;70650;51.408;7.132;2023-08-07T01:50:15;100088.94;;;12.13;94.39
81181;BME280;70650;51.408;7.132;2023-08-07T01:52:40;100081.31;;;12.09;94.22
81181;BME280;70650;51.408;7.132;2023-08-07T01:55:06;100079.59;;;12.08;93.95
81181;BME280;70650;51.408;7.132;2023-08-07T01:57:31;100091.81;;;12.10;94.11
81181;BME280;70650;51.408;7.132;2023-08-07T01:59:57;100090.41;;;12.05;94.16
81181;BME280;70650;51.408;7.132;2023-08-07T02:02:22;100093.50;;;12.11;93.87
81181;BME280;70650;51.408;7.132;2023-08-07T02:04:48;100099.75;;;12.10;94.11
81181;BME280;70650;51.408;7.132;2023-08-07T02:07:14;100079.81;;;12.05;94.10
81181;BME280;70650;51.408;7.132;2023-08-07T02:09:39;100094.16;;;12.15;94.15
81181;BME280;70650;51.408;7.132;2023-08-07T02:12:05;100087.53;;;12.08;93.62
81181;BME280;70650;51.408;7.132;2023-08-07T02:14:30;100090.19;;;12.08;93.76
81181;BME280;70650;51.408;7.132;2023-08-07T02:16:55;100092.75;;;12.09;93.75
81181;BME280;70650;51.408;7.132;2023-08-07T02:19:21;100097.56;;;12.17;93.82
81181;BME280;70650;51.408;7.132;2023-08-07T02:21:46;100092.56;;;12.12;93.88
81181;BME280;70650;51.408;7.132;2023-08-07T02:24:11;100098.69;;;12.13;94.17
81181;BME280;70650;51.408;7.132;2023-08-07T02:26:37;100084.03;;;12.07;93.65
81181;BME280;70650;51.408;7.132;2023-08-07T02:29:02;100103.94;;;12.14;93.81
81181;BME280;70650;51.408;7.132;2023-08-07T02:31:29;100089.91;;;12.12;93.78
81181;BME280;70650;51.408;7.132;2023-08-07T02:33:54;100101.91;;;12.18;93.71
81181;BME280;70650;51.408;7.132;2023-08-07T02:36:19;100111.66;;;12.17;93.68
81181;BME280;70650;51.408;7.132;2023-08-07T02:38:44;100105.91;;;12.11;93.88
81181;BME280;70650;51.408;7.132;2023-08-07T02:41:10;100111.88;;;12.14;94.07
81181;BME280;70650;51.408;7.132;2023-08-07T02:43:35;100111.38;;;12.08;93.66
81181;BME280;70650;51.408;7.132;2023-08-07T02:46:00;100105.34;;;12.06;94.35
81181;BME280;70650;51.408;7.132;2023-08-07T02:48:26;100111.22;;;12.11;93.71
81181;BME280;70650;51.408;7.132;2023-08-07T02:50:51;100115.78;;;12.09;93.51
81181;BME280;70650;51.408;7.132;2023-08-07T02:53:16;100122.00;;;12.08;93.72
81181;BME280;70650;51.408;7.132;2023-08-07T02:55:43;100115.56;;;12.12;93.75
81181;BME280;70650;51.408;7.132;2023-08-07T02:58:09;100118.59;;;12.06;93.89
81181;BME280;70650;51.408;7.132;2023-08-07T03:00:34;100107.59;;;12.12;93.42
81181;BME280;70650;51.408;7.132;2023-08-07T03:03:00;100128.41;;;12.18;93.28
81181;BME280;70650;51.408;7.132;2023-08-07T03:05:25;100109.13;;;12.16;93.29
81181;BME280;70650;51.408;7.132;2023-08-07T03:07:51;100120.56;;;12.16;93.69
81181;BME280;70650;51.408;7.132;2023-08-07T03:10:16;100131.72;;;12.22;93.46
81181;BME280;70650;51.408;7.132;2023-08-07T03:12:41;100116.97;;;12.17;93.02
81181;BME280;70650;51.408;7.132;2023-08-07T03:15:07;100106.97;;;12.08;93.69
81181;BME280;70650;51.408;7.132;2023-08-07T03:17:32;100122.16;;;12.19;93.22
81181;BME280;70650;51.408;7.132;2023-08-07T03:19:57;100121.22;;;12.20;93.30
81181;BME280;70650;51.408;7.132;2023-08-07T03:22:23;100110.72;;;12.18;93.48
81181;BME280;70650;51.408;7.132;2023-08-07T03:24:49;100117.69;;;12.19;93.30
81181;BME280;70650;51.408;7.132;2023-08-07T03:27:14;100120.84;;;12.12;93.18
81181;BME280;70650;51.408;7.132;2023-08-07T03:29:40;100120.47;;;12.18;93.10
81181;BME280;70650;51.408;7.132;2023-08-07T03:32:06;100122.25;;;12.17;93.07
81181;BME280;70650;51.408;7.132;2023-08-07T03:34:31;100124.16;;;12.15;93.02
81181;BME280;70650;51.408;7.132;2023-08-07T03:36:56;100125.41;;;12.10;93.06
81181;BME280;70650;51.408;7.132;2023-08-07T03:39:24;100116.16;;;12.03;92.81
81181;BME280;70650;51.408;7.132;2023-08-07T03:41:49;100126.75;;;12.03;93.23
81181;BME280;70650;51.408;7.132;2023-08-07T03:44:15;100128.16;;;12.08;92.88
81181;BME280;70650;51.408;7.132;2023-08-07T03:46:40;100127.59;;;12.03;93.19
81181;BME280;70650;51.408;7.132;2023-08-07T03:49:05;100134.59;;;12.04;93.52
81181;BME280;70650;51.408;7.132;2023-08-07T03:51:31;100137.38;;;12.03;92.73
81181;BME280;70650;51.408;7.132;2023-08-07T03:53:57;100145.00;;;12.07;92.83
81181;BME280;70650;51.408;7.132;2023-08-07T03:56:22;100130.91;;;12.07;92.69
81181;BME280;70650;51.408;7.132;2023-08-07T03:58:48;100137.03;;;12.07;92.59
81181;BME280;70650;51.408;7.132;2023-08-07T04:01:15;100118.59;;;12.06;92.65
81181;BME280;70650;51.408;7.132;2023-08-07T04:03:40;100122.56;;;12.13;92.31
81181;BME280;70650;51.408;7.132;2023-08-07T04:06:06;100130.06;;;12.06;92.34
81181;BME280;70650;51.408;7.132;2023-08-07T04:08:34;100125.53;;;12.08;91.97
81181;BME280;70650;51.408;7.132;2023-08-07T04:11:04;100139.41;;;12.12;92.18
81181;BME280;70650;51.408;7.132;2023-08-07T04:13:30;100124.66;;;12.08;91.93
81181;BME280;70650;51.408;7.132;2023-08-07T04:15:56;100119.66;;;12.03;91.90
81181;BME280;70650;51.408;7.132;2023-08-07T04:18:21;100132.81;;;12.05;92.46
81181;BME280;70650;51.408;7.132;2023-08-07T04:20:52;100125.81;;;12.04;92.14
81181;BME280;70650;51.408;7.132;2023-08-07T04:23:19;100134.31;;;12.09;92.41
81181;BME280;70650;51.408;7.132;2023-08-07T04:25:47;100127.91;;;11.99;92.09
81181;BME280;70650;51.408;7.132;2023-08-07T04:28:12;100136.19;;;12.07;91.98
81181;BME280;70650;51.408;7.132;2023-08-07T04:30:37;100142.75;;;12.01;92.52
81181;BME280;70650;51.408;7.132;2023-08-07T04:33:03;100142.66;;;12.03;92.93
81181;BME280;70650;51.408;7.132;2023-08-07T04:35:28;100131.19;;;12.02;92.99
81181;BME280;70650;51.408;7.132;2023-08-07T04:37:53;100143.00;;;12.11;92.50
81181;BME280;70650;51.408;7.132;2023-08-07T04:40:19;100167.81;;;12.10;92.55
81181;BME280;70650;51.408;7.132;2023-08-07T04:42:44;100148.50;;;12.08;92.64
81181;BME280;70650;51.408;7.132;2023-08-07T04:45:09;100161.84;;;12.06;92.71
81181;BME280;70650;51.408;7.132;2023-08-07T04:47:35;100129.03;;;11.94;92.84
81181;BME280;70650;51.408;7.132;2023-08-07T04:50:00;100104.06;;;11.84;92.51
81181;BME280;70650;51.408;7.132;2023-08-07T04:52:26;100154.75;;;12.07;92.48
81181;BME280;70650;51.408;7.132;2023-08-07T04:54:51;100123.16;;;11.89;92.48
81181;BME280;70650;51.408;7.132;2023-08-07T04:57:17;100138.09;;;12.05;91.91
81181;BME280;70650;51.408;7.132;2023-08-07T04:59:42;100152.47;;;12.15;92.14
81181;BME280;70650;51.408;7.132;2023-08-07T05:02:08;100111.06;;;11.85;91.73
81181;BME280;70650;51.408;7.132;2023-08-07T05:04:33;100127.06;;;11.98;91.96
81181;BME280;70650;51.408;7.132;2023-08-07T05:07:00;100126.38;;;11.94;92.00
81181;BME280;70650;51.408;7.132;2023-08-07T05:09:25;100143.00;;;12.11;92.07
81181;BME280;70650;51.408;7.132;2023-08-07T05:11:50;100149.16;;;12.11;91.54
81181;BME280;70650;51.408;7.132;2023-08-07T05:14:15;100141.50;;;12.07;92.01
81181;BME280;70650;51.408;7.132;2023-08-07T05:16:41;100140.75;;;12.05;92.68
81181;BME280;70650;51.408;7.132;2023-08-07T05:19:07;100151.53;;;12.02;91.81
81181;BME280;70650;51.408;7.132;2023-08-07T05:21:33;100148.69;;;12.05;91.90
81181;BME280;70650;51.408;7.132;2023-08-07T05:23:58;100115.31;;;11.88;91.92
81181;BME280;70650;51.408;7.132;2023-08-07T05:26:23;100108.22;;;11.88;91.98
81181;BME280;70650;51.408;7.132;2023-08-07T05:28:49;100128.94;;;11.96;91.70
81181;BME280;70650;51.408;7.132;2023-08-07T05:31:14;100130.25;;;11.89;92.22
81181;BME280;70650;51.408;7.132;2023-08-07T05:33:40;100153.25;;;12.03;92.17
81181;BME280;70650;51.408;7.132;2023-08-07T05:36:06;100157.59;;;12.04;91.97
81181;BME280;70650;51.408;7.132;2023-08-07T05:38:33;100143.50;;;11.89;92.17
81181;BME280;70650;51.408;7.132;2023-08-07T05:40:58;100155.63;;;11.93;92.69
81181;BME280;70650;51.408;7.132;2023-08-07T05:43:23;100149.88;;;11.86;92.58
81181;BME280;70650;51.408;7.132;2023-08-07T05:45:49;100146.69;;;11.80;92.79
81181;BME280;70650;51.408;7.132;2023-08-07T05:48:15;100152.94;;;11.79;92.96
81181;BME280;70650;51.408;7.132;2023-08-07T05:50:41;100174.34;;;11.90;93.25
81181;BME280;70650;51.408;7.132;2023-08-07T05:53:07;100181.34;;;11.91;92.88
81181;BME280;70650;51.408;7.132;2023-08-07T05:55:33;100176.53;;;11.83;93.06
81181;BME280;70650;51.408;7.132;2023-08-07T05:57:58;100189.19;;;11.78;93.02
81181;BME280;70650;51.408;7.132;2023-08-07T06:00:23;100176.44;;;11.85;93.71
81181;BME280;70650;51.408;7.132;2023-08-07T06:02:49;100167.75;;;11.83;93.28
81181;BME280;70650;51.408;7.132;2023-08-07T06:05:15;100171.25;;;11.83;93.34
81181;BME280;70650;51.408;7.132;2023-08-07T06:07:41;100188.44;;;11.90;93.12
81181;BME280;70650;51.408;7.132;2023-08-07T06:10:07;100180.44;;;11.92;93.40
81181;BME280;70650;51.408;7.132;2023-08-07T06:12:33;100187.53;;;11.91;93.34
81181;BME280;70650;51.408;7.132;2023-08-07T06:14:59;100190.34;;;11.88;93.41
81181;BME280;70650;51.408;7.132;2023-08-07T06:17:26;100183.94;;;11.92;93.33
81181;BME280;70650;51.408;7.132;2023-08-07T06:19:52;100189.78;;;11.98;93.32
81181;BME280;70650;51.408;7.132;2023-08-07T06:22:17;100180.31;;;11.93;93.26
81181;BME280;70650;51.408;7.132;2023-08-07T06:24:42;100188.44;;;11.90;93.62
81181;BME280;70650;51.408;7.132;2023-08-07T06:27:09;100191.78;;;11.94;93.32
81181;BME280;70650;51.408;7.132;2023-08-07T06:29:34;100189.00;;;11.96;93.44
81181;BME280;70650;51.408;7.132;2023-08-07T06:32:00;100182.31;;;11.90;93.38
81181;BME280;70650;51.408;7.132;2023-08-07T06:34:25;100188.06;;;11.97;93.42
81181;BME280;70650;51.408;7.132;2023-08-07T06:36:50;100189.50;;;11.88;93.33
81181;BME280;70650;51.408;7.132;2023-08-07T06:39:16;100208.69;;;12.06;93.41
81181;BME280;70650;51.408;7.132;2023-08-07T06:41:42;100206.78;;;12.08;93.16
81181;BME280;70650;51.408;7.132;2023-08-07T06:44:07;100215.13;;;12.16;93.25
81181;BME280;70650;51.408;7.132;2023-08-07T06:46:33;100229.97;;;12.18;92.85
81181;BME280;70650;51.408;7.132;2023-08-07T06:48:58;100221.00;;;12.21;93.42
81181;BME280;70650;51.408;7.132;2023-08-07T06:51:23;100207.53;;;12.24;93.25
81181;BME280;70650;51.408;7.132;2023-08-07T06:53:49;100212.00;;;12.24;92.89
81181;BME280;70650;51.408;7.132;2023-08-07T06:56:14;100230.44;;;12.25;93.39
81181;BME280;70650;51.408;7.132;2023-08-07T06:58:39;100204.31;;;12.19;93.19
81181;BME280;70650;51.408;7.132;2023-08-07T07:01:04;100228.84;;;12.23;93.08
81181;BME280;70650;51.408;7.132;2023-08-07T07:03:31;100221.97;;;12.20;93.56
81181;BME280;70650;51.408;7.132;2023-08-07T07:05:59;100228.56;;;12.27;93.46
81181;BME280;70650;51.408;7.132;2023-08-07T07:08:24;100233.97;;;12.26;93.01
81181;BME280;70650;51.408;7.132;2023-08-07T07:10:49;100227.91;;;12.24;92.76
81181;BME280;70650;51.408;7.132;2023-08-07T07:13:15;100247.03;;;12.29;92.64
81181;BME280;70650;51.408;7.132;2023-08-07T07:15:40;100242.19;;;12.35;93.45
81181;BME280;70650;51.408;7.132;2023-08-07T07:18:05;100243.34;;;12.31;93.10
81181;BME280;70650;51.408;7.132;2023-08-07T07:20:31;100245.59;;;12.37;93.39
81181;BME280;70650;51.408;7.132;2023-08-07T07:22:56;100228.66;;;12.26;92.84
81181;BME280;70650;51.408;7.132;2023-08-07T07:25:21;100270.38;;;12.36;92.57
81181;BME280;70650;51.408;7.132;2023-08-07T07:27:47;100259.31;;;12.44;93.60
81181;BME280;70650;51.408;7.132;2023-08-07T07:30:12;100274.16;;;12.46;92.91
81181;BME280;70650;51.408;7.132;2023-08-07T07:32:37;100266.44;;;12.43;92.98
81181;BME280;70650;51.408;7.132;2023-08-07T07:35:03;100261.03;;;12.45;93.05
81181;BME280;70650;51.408;7.132;2023-08-07T07:37:30;100267.00;;;12.49;92.81
81181;BME280;70650;51.408;7.132;2023-08-07T07:39:55;100275.13;;;12.45;93.09
81181;BME280;70650;51.408;7.132;2023-08-07T07:42:21;100273.53;;;12.43;93.44
81181;BME280;70650;51.408;7.132;2023-08-07T07:44:47;100281.09;;;12.49;93.13
81181;BME280;70650;51.408;7.132;2023-08-07T07:47:12;100262.53;;;12.35;93.19
81181;BME280;70650;51.408;7.132;2023-08-07T07:49:38;100282.59;;;12.53;93.16
81181;BME280;70650;51.408;7.132;2023-08-07T07:52:05;100278.00;;;12.42;93.00
81181;BME280;70650;51.408;7.132;2023-08-07T07:54:31;100289.31;;;12.59;93.33
81181;BME280;70650;51.408;7.132;2023-08-07T07:56:57;100293.59;;;12.61;93.12
81181;BME280;70650;51.408;7.132;2023-08-07T07:59:26;100297.38;;;12.57;93.27
81181;BME280;70650;51.408;7.132;2023-08-07T08:01:51;100289.69;;;12.53;92.95
81181;BME280;70650;51.408;7.132;2023-08-07T08:04:16;100291.56;;;12.65;93.28
81181;BME280;70650;51.408;7.132;2023-08-07T08:06:42;100284.00;;;12.59;92.77
81181;BME280;70650;51.408;7.132;2023-08-07T08:09:07;100321.53;;;12.67;93.05
81181;BME280;70650;51.408;7.132;2023-08-07T08:11:34;100309.38;;;12.63;93.05
81181;BME280;70650;51.408;7.132;2023-08-07T08:14:00;100318.78;;;12.54;92.82
81181;BME280;70650;51.408;7.132;2023-08-07T08:16:26;100324.16;;;12.53;93.30
81181;BME280;70650;51.408;7.132;2023-08-07T08:18:53;100311.88;;;12.52;93.58
81181;BME280;70650;51.408;7.132;2023-08-07T08:21:18;100325.03;;;12.67;92.96
81181;BME280;70650;51.408;7.132;2023-08-07T08:23:43;100331.75;;;12.73;92.88
81181;BME280;70650;51.408;7.132;2023-08-07T08:26:09;100336.00;;;12.76;92.34
81181;BME280;70650;51.408;7.132;2023-08-07T08:28:34;100343.03;;;12.77;92.81
81181;BME280;70650;51.408;7.132;2023-08-07T08:30:59;100343.38;;;12.70;92.79
81181;BME280;70650;51.408;7.132;2023-08-07T08:33:25;100343.22;;;12.73;92.50
81181;BME280;70650;51.408;7.132;2023-08-07T08:35:50;100354.09;;;12.83;92.39
81181;BME280;70650;51.408;7.132;2023-08-07T08:38:15;100373.53;;;12.84;92.65
81181;BME280;70650;51.408;7.132;2023-08-07T08:40:42;100357.38;;;12.87;93.06
81181;BME280;70650;51.408;7.132;2023-08-07T08:43:09;100361.78;;;12.88;92.26
81181;BME280;70650;51.408;7.132;2023-08-07T08:45:40;100358.72;;;12.80;92.41
81181;BME280;70650;51.408;7.132;2023-08-07T08:48:07;100374.91;;;13.04;92.99
81181;BME280;70650;51.408;7.132;2023-08-07T08:50:37;100378.09;;;13.09;91.80
81181;BME280;70650;51.408;7.132;2023-08-07T08:53:03;100376.69;;;13.17;91.13
81181;BME280;70650;51.408;7.132;2023-08-07T08:55:30;100387.28;;;13.32;91.11
81181;BME280;70650;51.408;7.132;2023-08-07T08:57:57;100387.53;;;13.41;91.45
81181;BME280;70650;51.408;7.132;2023-08-07T09:00:26;100395.56;;;13.54;91.14
81181;BME280;70650;51.408;7.132;2023-08-07T09:02:53;100402.53;;;13.69;91.40
81181;BME280;70650;51.408;7.132;2023-08-07T09:05:20;100367.19;;;13.55;89.74
81181;BME280;70650;51.408;7.132;2023-08-07T09:07:49;100379.44;;;13.57;89.51
81181;BME280;70650;51.408;7.132;2023-08-07T09:10:15;100376.34;;;13.50;90.29
81181;BME280;70650;51.408;7.132;2023-08-07T09:12:45;100396.66;;;13.64;89.51
81181;BME280;70650;51.408;7.132;2023-08-07T09:15:15;100412.22;;;13.83;90.83
81181;BME280;70650;51.408;7.132;2023-08-07T09:17:42;100394.44;;;13.71;89.92
81181;BME280;70650;51.408;7.132;2023-08-07T09:20:08;100410.88;;;13.90;90.80
81181;BME280;70650;51.408;7.132;2023-08-07T09:22:38;100402.66;;;13.81;89.04
81181;BME280;70650;51.408;7.132;2023-08-07T09:25:04;100409.16;;;13.89;89.60
81181;BME280;70650;51.408;7.132;2023-08-07T09:27:30;100426.63;;;14.06;89.97
81181;BME280;70650;51.408;7.132;2023-08-07T09:29:56;100425.56;;;13.96;88.91
81181;BME280;70650;51.408;7.132;2023-08-07T09:32:22;100422.59;;;14.00;89.00
81181;BME280;70650;51.408;7.132;2023-08-07T09:34:49;100410.97;;;13.89;88.32
81181;BME280;70650;51.408;7.132;2023-08-07T09:37:17;100416.22;;;14.03;88.41
81181;BME280;70650;51.408;7.132;2023-08-07T09:39:42;100403.06;;;14.14;88.04
81181;BME280;70650;51.408;7.132;2023-08-07T09:42:15;100408.50;;;14.38;86.98
81181;BME280;70650;51.408;7.132;2023-08-07T09:44:41;100400.75;;;14.35;87.22
81181;BME280;70650;51.408;7.132;2023-08-07T09:47:15;100429.59;;;14.41;86.96
81181;BME280;70650;51.408;7.132;2023-08-07T09:49:41;100411.47;;;14.21;87.69
81181;BME280;70650;51.408;7.132;2023-08-07T09:52:08;100394.72;;;13.93;87.54
81181;BME280;70650;51.408;7.132;2023-08-07T09:54:34;100419.94;;;14.00;87.50
81181;BME280;70650;51.408;7.132;2023-08-07T09:57:01;100442.03;;;14.01;88.80
81181;BME280;70650;51.408;7.132;2023-08-07T09:59:27;100430.28;;;13.78;89.00
81181;BME280;70650;51.408;7.132;2023-08-07T10:01:54;100432.06;;;13.65;89.02
81181;BME280;70650;51.408;7.132;2023-08-07T10:04:21;100451.53;;;13.78;88.53
81181;BME280;70650;51.408;7.132;2023-08-07T10:06:46;100458.19;;;13.85;87.97
81181;BME280;70650;51.408;7.132;2023-08-07T10:09:12;100465.59;;;13.80;89.28
81181;BME280;70650;51.408;7.132;2023-08-07T10:11:40;100446.22;;;13.78;88.18
81181;BME280;70650;51.408;7.132;2023-08-07T10:14:06;100446.78;;;13.83;88.78
81181;BME280;70650;51.408;7.132;2023-08-07T10:16:32;100462.56;;;13.99;86.81
81181;BME280;70650;51.408;7.132;2023-08-07T10:18:57;100472.38;;;14.11;87.04
81181;BME280;70650;51.408;7.132;2023-08-07T10:21:24;100466.03;;;14.26;86.94
81181;BME280;70650;51.408;7.132;2023-08-07T10:23:53;100454.00;;;14.21;87.03
81181;BME280;70650;51.408;7.132;2023-08-07T10:26:20;100458.22;;;14.50;87.36
81181;BME280;70650;51.408;7.132;2023-08-07T10:28:47;100459.72;;;15.05;89.47
81181;BME280;70650;51.408;7.132;2023-08-07T10:31:13;100462.28;;;14.69;85.53
81181;BME280;70650;51.408;7.132;2023-08-07T10:33:40;100457.50;;;14.48;85.53
81181;BME280;70650;51.408;7.132;2023-08-07T10:36:10;100456.91;;;14.43;86.60
81181;BME280;70650;51.408;7.132;2023-08-07T10:38:36;100460.31;;;14.45;86.15
81181;BME280;70650;51.408;7.132;2023-08-07T10:41:06;100474.34;;;14.87;85.94
81181;BME280;70650;51.408;7.132;2023-08-07T10:43:37;100470.75;;;15.25;84.78
81181;BME280;70650;51.408;7.132;2023-08-07T10:46:08;100462.91;;;15.10;82.65
81181;BME280;70650;51.408;7.132;2023-08-07T10:48:44;100464.41;;;14.89;84.10
81181;BME280;70650;51.408;7.132;2023-08-07T10:51:13;100464.75;;;14.72;84.80
81181;BME280;70650;51.408;7.132;2023-08-07T10:53:44;100475.59;;;14.56;85.48
81181;BME280;70650;51.408;7.132;2023-08-07T10:56:15;100494.75;;;14.48;86.20
81181;BME280;70650;51.408;7.132;2023-08-07T10:58:41;100493.19;;;14.31;87.56
81181;BME280;70650;51.408;7.132;2023-08-07T11:01:39;100504.53;;;14.21;89.10
81181;BME280;70650;51.408;7.132;2023-08-07T11:04:11;100495.47;;;14.11;87.73
81181;BME280;70650;51.408;7.132;2023-08-07T11:06:41;100497.25;;;13.97;84.94
81181;BME280;70650;51.408;7.132;2023-08-07T11:09:08;100491.25;;;13.94;84.96
81181;BME280;70650;51.408;7.132;2023-08-07T11:11:45;100503.66;;;14.08;84.88
81181;BME280;70650;51.408;7.132;2023-08-07T11:14:13;100512.72;;;14.18;85.28
81181;BME280;70650;51.408;7.132;2023-08-07T11:16:39;100495.84;;;14.31;85.27
81181;BME280;70650;51.408;7.132;2023-08-07T11:19:05;100507.47;;;14.43;85.12
81181;BME280;70650;51.408;7.132;2023-08-07T11:21:31;100500.31;;;14.71;84.22
81181;BME280;70650;51.408;7.132;2023-08-07T11:23:57;100497.72;;;15.07;84.15
81181;BME280;70650;51.408;7.132;2023-08-07T11:26:23;100496.78;;;15.21;82.91
81181;BME280;70650;51.408;7.132;2023-08-07T11:28:51;100500.94;;;15.62;83.21
81181;BME280;70650;51.408;7.132;2023-08-07T11:31:17;100510.22;;;15.56;81.18
81181;BME280;70650;51.408;7.132;2023-08-07T11:33:43;100515.41;;;15.83;81.54
81181;BME280;70650;51.408;7.132;2023-08-07T11:36:13;100529.00;;;16.15;80.58
81181;BME280;70650;51.408;7.132;2023-08-07T11:38:39;100499.28;;;16.44;78.65
81181;BME280;70650;51.408;7.132;2023-08-07T11:41:06;100509.03;;;16.67;76.67
81181;BME280;70650;51.408;7.132;2023-08-07T11:43:33;100498.09;;;17.17;77.65
81181;BME280;70650;51.408;7.132;2023-08-07T11:46:02;100509.22;;;16.77;78.25
81181;BME280;70650;51.408;7.132;2023-08-07T11:48:31;100495.59;;;16.23;77.49
81181;BME280;70650;51.408;7.132;2023-08-07T11:50:58;100509.78;;;15.99;78.33
81181;BME280;70650;51.408;7.132;2023-08-07T11:53:29;100510.53;;;15.64;79.27
81181;BME280;70650;51.408;7.132;2023-08-07T11:58:21;100517.06;;;15.48;80.72
81181;BME280;70650;51.408;7.132;2023-08-07T12:00:47;100513.22;;;15.64;76.83
81181;BME280;70650;51.408;7.132;2023-08-07T12:03:29;100513.72;;;16.06;76.27
81181;BME280;70650;51.408;7.132;2023-08-07T12:05:56;100506.63;;;16.64;72.65
81181;BME280;70650;51.408;7.132;2023-08-07T12:08:21;100518.00;;;16.79;74.58
81181;BME280;70650;51.408;7.132;2023-08-07T12:10:54;100496.28;;;17.17;72.28
81181;BME280;70650;51.408;7.132;2023-08-07T12:13:29;100497.06;;;17.63;70.50
81181;BME280;70650;51.408;7.132;2023-08-07T12:15:55;100498.06;;;17.51;70.52
81181;BME280;70650;51.408;7.132;2023-08-07T12:18:22;100535.94;;;18.00;70.03
81181;BME280;70650;51.408;7.132;2023-08-07T12:20:51;100513.31;;;18.05;68.63
81181;BME280;70650;51.408;7.132;2023-08-07T12:23:20;100503.50;;;18.47;68.10
81181;BME280;70650;51.408;7.132;2023-08-07T12:25:46;100502.25;;;18.30;66.40
81181;BME280;70650;51.408;7.132;2023-08-07T12:28:11;100516.44;;;18.63;66.47
81181;BME280;70650;51.408;7.132;2023-08-07T12:30:37;100514.50;;;18.44;65.05
81181;BME280;70650;51.408;7.132;2023-08-07T12:33:03;100506.09;;;18.69;67.33
81181;BME280;70650;51.408;7.132;2023-08-07T12:35:34;100510.13;;;18.85;62.45
81181;BME280;70650;51.408;7.132;2023-08-07T12:38:00;100525.72;;;18.59;59.06
81181;BME280;70650;51.408;7.132;2023-08-07T12:40:30;100506.88;;;18.49;62.28
81181;BME280;70650;51.408;7.132;2023-08-07T12:42:57;100512.63;;;19.38;61.44
81181;BME280;70650;51.408;7.132;2023-08-07T12:45:23;100515.09;;;18.89;61.35
81181;BME280;70650;51.408;7.132;2023-08-07T12:47:48;100508.72;;;18.48;61.53
81181;BME280;70650;51.408;7.132;2023-08-07T12:50:15;100518.66;;;18.05;63.25
81181;BME280;70650;51.408;7.132;2023-08-07T12:52:41;100507.06;;;17.72;65.11